Afton, TN

3:58 AM EDT on October 23, 2014 (GMT -0400)
Sand Valley Estates | Change Station
CLOSE
Current Station
Personal Weather Station
Location: Jonesborough, TN
Elevation: 1732 ft
Nearby Weather Stations

Elev 1732 ft 36.27 °N, 82.51 °W | Updated 8 minutes ago

Mostly Cloudy
Mostly Cloudy
45.9 °F
Feels Like 46 °F
N
0.0
Wind Variable Wind from NNE
Gusts 0.0 mph

Today
High -- | Low -- °F
--% Chance of Precip.
Yesterday
High -- | Low -- °F
Precip. -- in
7:45 AM 6:44 PM
Waning Crescent, 0% visible
Pressure 30.15 in
Visibility 10.0 miles
Clouds Overcast 2700 ft
Windchill 46 °F
Dew Point 41 °F
Humidity 82%
Rainfall 0.00 in
Snow Depth Not available.
UV 0 out of 12
Pollen 1.30 out of 12
Air Quality Not available.
Flu Activity Sporadic
METAR KTRI 230753Z 34003KT 10SM OVC027 09/04 A3018 RMK AO2 SLP209 T00890044

More Conditions Fewer Conditions

Pressure 30.15 in
Visibility 10.0 miles
Clouds Overcast 2700 ft
Windchill 46 °F
Dew Point 41 °F
Humidity 82%
Rainfall 0.00 in
Snow Depth Not available.
UV 0 out of 12
Pollen 1.30 out of 12
Air Quality Not available.
Flu Activity Sporadic
METAR KTRI 230753Z 34003KT 10SM OVC027 09/04 A3018 RMK AO2 SLP209 T00890044

More Conditions Fewer Conditions

10-Day Weather Forecast

Almanac

Astronomy

Oct. 23, 2014 Rise Set
Actual Time 7:45 AM EDT 6:44 PM EDT
Civil Twilight 7:18 AM EDT 7:10 PM EDT
Nautical Twilight 6:48 AM EDT 7:40 PM EDT
Astronomical Twilight 6:18 AM EDT 8:10 PM EDT
Moon 7:24 AM EDT 6:45 PM EDT
Length of Visible Light 11h 52m
Length of Day
10h 59m
Tomorrow will be 2m 7s shorter.
Waning Crescent, 0% of the Moon is Illuminated
Today
Waning Crescent
Oct 23
New
Oct 30
First Quarter
Nov 6
Full
Nov 14
Last Quarter

Today's Extremes

State Highs State Lows

Community

WunderPhotos

Upload Photos

1,764,194 photos uploaded!

Nearby

Snow Depth

Station Depth Elevation
No new snow has been reported.

Earthquake Activity

City Distance Mag. Time & Date
No recent earthquake activity has been reported nearby.
Minimum magnitude displayed is 2.5.

Coastal Water Temperatures

Place Temperature
No Stations Reporting

Nearby Weather Stations